Time;durP1;ratioP1;P1;durP2;ratioP2;P2;SDS_P1;SDS_P2;PMS_P1;PMS_P2;Temp;Humidity;BMP_temperature;BMP_pressure;BME280_temperature;BME280_humidity;BME280_pressure;Samples;Min_cycle;Max_cycle;Signal;HPM_P1;HPM_P2
2023/02/23 00:00:19;;;;;;;28.60;16.80;;;7.20;99.90;;;;;;5020615;28;20478;-57
2023/02/23 00:02:49;;;;;;;30.73;18.13;;;7.20;99.90;;;;;;5027187;28;20202;-55
2023/02/23 00:05:16;;;;;;;32.77;17.20;;;7.20;99.90;;;;;;5029769;28;20438;-58
2023/02/23 00:07:43;;;;;;;26.40;16.20;;;7.20;99.90;;;;;;5012524;28;20998;-53
2023/02/23 00:10:12;;;;;;;23.53;16.03;;;7.20;99.90;;;;;;5026653;28;20458;-56
2023/02/23 00:12:38;;;;;;;26.93;15.77;;;7.20;99.90;;;;;;5015114;28;20789;-57
2023/02/23 00:15:04;;;;;;;28.23;16.53;;;7.20;99.90;;;;;;5021315;28;20450;-54
2023/02/23 00:17:31;;;;;;;30.13;16.70;;;7.10;99.90;;;;;;5025930;28;20465;-56
2023/02/23 00:19:57;;;;;;;31.90;16.30;;;7.20;99.90;;;;;;5027929;28;20935;-55
2023/02/23 00:22:25;;;;;;;29.03;17.20;;;7.10;99.90;;;;;;5022544;28;20431;-55
2023/02/23 00:24:51;;;;;;;24.27;15.90;;;7.10;99.90;;;;;;5023249;28;20545;-56
2023/02/23 00:27:17;;;;;;;27.20;15.70;;;7.10;99.90;;;;;;5024240;28;20433;-56
2023/02/23 00:29:43;;;;;;;25.17;15.97;;;7.10;99.90;;;;;;5027958;28;20168;-54
2023/02/23 00:32:09;;;;;;;30.20;16.60;;;7.10;99.90;;;;;;5020962;28;20453;-57
2023/02/23 00:34:35;;;;;;;32.40;17.60;;;7.10;99.90;;;;;;5022993;28;20203;-55
2023/02/23 00:37:01;;;;;;;27.03;15.80;;;7.10;99.90;;;;;;5030641;28;20586;-57
2023/02/23 00:39:27;;;;;;;31.73;17.10;;;7.00;99.90;;;;;;5027664;28;21169;-54
2023/02/23 00:41:54;;;;;;;27.07;15.93;;;7.00;99.90;;;;;;5016026;28;20178;-57
2023/02/23 00:44:22;;;;;;;32.43;16.83;;;7.00;99.90;;;;;;5022072;28;20454;-55
2023/02/23 00:46:50;;;;;;;29.03;17.23;;;7.00;99.90;;;;;;5024340;28;20949;-57
2023/02/23 00:49:16;;;;;;;27.23;16.00;;;7.00;99.90;;;;;;5027186;28;20493;-56
2023/02/23 00:51:42;;;;;;;30.10;17.10;;;7.00;99.90;;;;;;5018616;28;20506;-57
2023/02/23 00:54:12;;;;;;;28.77;17.57;;;7.00;99.90;;;;;;5033464;28;20993;-55
2023/02/23 00:56:39;;;;;;;31.00;17.00;;;7.00;99.90;;;;;;5025529;28;20633;-55
2023/02/23 00:59:05;;;;;;;28.53;17.23;;;7.00;99.90;;;;;;5025761;28;20442;-57
2023/02/23 01:01:31;;;;;;;29.07;17.03;;;7.00;99.90;;;;;;5016309;28;20441;-55
2023/02/23 01:03:57;;;;;;;33.60;17.50;;;7.00;99.90;;;;;;5026730;28;20411;-55
2023/02/23 01:06:23;;;;;;;29.67;17.90;;;7.00;99.90;;;;;;5023609;28;20537;-55
2023/02/23 01:08:55;;;;;;;30.17;17.03;;;7.00;99.90;;;;;;5021043;28;20184;-56
2023/02/23 01:11:29;;;;;;;26.07;16.87;;;7.00;99.90;;;;;;5027182;28;20228;-55
2023/02/23 01:13:57;;;;;;;28.03;16.67;;;7.00;99.90;;;;;;5030048;28;20936;-55
2023/02/23 01:16:26;;;;;;;28.37;16.70;;;7.00;99.90;;;;;;5023368;28;20473;-56
2023/02/23 01:18:54;;;;;;;30.83;16.83;;;7.00;99.90;;;;;;5028700;28;20434;-55
2023/02/23 01:21:23;;;;;;;26.33;16.20;;;7.10;99.90;;;;;;5024444;28;20469;-54
2023/02/23 01:23:50;;;;;;;30.73;17.47;;;7.00;99.90;;;;;;5022674;28;20434;-54
2023/02/23 01:26:21;;;;;;;28.93;17.40;;;7.00;99.90;;;;;;5019622;28;20430;-54
2023/02/23 01:29:10;;;;;;;32.40;18.17;;;7.00;99.90;;;;;;5031388;28;20438;-56
2023/02/23 01:31:38;;;;;;;28.53;16.87;;;7.00;99.90;;;;;;5022732;28;20449;-57
2023/02/23 01:34:05;;;;;;;38.73;17.00;;;7.00;99.90;;;;;;5023825;28;20442;-58
2023/02/23 01:36:34;;;;;;;29.07;16.80;;;7.00;99.90;;;;;;5020832;28;20612;-55
2023/02/23 01:39:00;;;;;;;30.07;16.13;;;7.00;99.90;;;;;;5018450;28;20446;-56
2023/02/23 01:41:28;;;;;;;26.50;17.13;;;7.00;99.90;;;;;;5021367;28;20453;-57
2023/02/23 01:44:02;;;;;;;29.70;17.40;;;7.00;99.90;;;;;;5020608;28;20176;-55
2023/02/23 01:46:31;;;;;;;27.47;17.07;;;7.00;99.90;;;;;;5023578;28;20449;-56
2023/02/23 01:48:58;;;;;;;32.90;17.57;;;7.00;99.90;;;;;;5024711;28;20506;-56
2023/02/23 01:51:27;;;;;;;28.43;16.80;;;7.00;99.90;;;;;;5021851;28;20450;-54
2023/02/23 01:54:03;;;;;;;31.07;18.00;;;7.00;99.90;;;;;;5023619;28;20438;-56
2023/02/23 01:56:33;;;;;;;26.93;17.97;;;7.00;99.90;;;;;;5023974;28;20458;-56
2023/02/23 01:59:04;;;;;;;26.00;16.73;;;7.00;99.90;;;;;;5037556;28;20437;-54
2023/02/23 02:01:30;;;;;;;30.07;17.20;;;7.00;99.90;;;;;;5025554;28;20448;-54
2023/02/23 02:04:01;;;;;;;33.10;17.50;;;7.00;99.90;;;;;;5024458;28;20435;-56
2023/02/23 02:06:28;;;;;;;36.10;17.37;;;7.00;99.90;;;;;;5024388;28;20422;-58
2023/02/23 02:08:58;;;;;;;28.83;16.50;;;7.00;99.90;;;;;;5024296;28;20422;-56
2023/02/23 02:11:24;;;;;;;30.30;16.67;;;7.00;99.90;;;;;;5018138;28;20627;-55
2023/02/23 02:14:01;;;;;;;28.37;16.63;;;7.00;99.90;;;;;;5022413;28;20434;-56
2023/02/23 02:16:45;;;;;;;31.27;17.03;;;7.00;99.90;;;;;;5024273;28;20462;-55
2023/02/23 02:19:32;;;;;;;26.83;16.20;;;7.00;99.90;;;;;;5028228;28;20410;-55
2023/02/23 02:22:04;;;;;;;28.23;16.00;;;7.00;99.90;;;;;;5020707;28;20453;-53
2023/02/23 02:24:29;;;;;;;25.93;14.97;;;6.90;99.90;;;;;;5026239;28;20465;-55
2023/02/23 02:26:59;;;;;;;29.80;15.50;;;6.90;99.90;;;;;;5023498;28;21077;-55
2023/02/23 02:29:50;;;;;;;23.50;14.93;;;6.80;99.90;;;;;;5020850;28;20427;-57
2023/02/23 02:32:38;;;;;;;29.87;16.27;;;6.80;99.90;;;;;;5025537;28;20497;-56
2023/02/23 02:35:25;;;;;;;27.93;16.33;;;6.80;99.90;;;;;;5028091;28;20434;-54
2023/02/23 02:38:09;;;;;;;30.93;16.00;;;6.80;99.90;;;;;;5020871;28;20471;-56
2023/02/23 02:40:52;;;;;;;27.87;16.73;;;6.80;99.90;;;;;;5024621;28;20480;-53
2023/02/23 02:43:45;;;;;;;24.47;15.37;;;6.80;99.90;;;;;;5028941;28;20418;-55
2023/02/23 02:46:35;;;;;;;31.50;16.77;;;6.80;99.90;;;;;;5011699;28;20462;-56
2023/02/23 02:49:01;;;;;;;32.43;16.07;;;6.80;99.90;;;;;;5026583;28;20403;-56
2023/02/23 02:51:45;;;;;;;34.23;16.70;;;6.80;99.90;;;;;;5023148;28;20431;-55
2023/02/23 02:54:25;;;;;;;30.33;17.60;;;6.80;99.90;;;;;;5021166;28;20214;-55
2023/02/23 02:56:56;;;;;;;31.67;17.47;;;6.80;99.90;;;;;;5024223;28;21194;-54
2023/02/23 04:18:34;;;;;;;26.00;16.97;;;6.40;99.90;;;;;;5009220;28;20432;-58
2023/02/23 04:21:00;;;;;;;28.80;17.60;;;6.40;99.90;;;;;;4998835;28;20501;-58
2023/02/23 04:23:27;;;;;;;28.40;17.13;;;6.40;99.90;;;;;;5008976;28;20550;-58
2023/02/23 04:25:53;;;;;;;31.03;16.80;;;6.40;99.90;;;;;;5006381;28;20436;-58
2023/02/23 04:28:20;;;;;;;31.33;16.33;;;6.40;99.90;;;;;;5003550;28;20515;-58
2023/02/23 04:30:46;;;;;;;29.53;16.27;;;6.40;99.90;;;;;;5002725;28;20530;-57
2023/02/23 04:33:12;;;;;;;29.83;17.03;;;6.40;99.90;;;;;;5006209;28;20932;-58
2023/02/23 04:35:38;;;;;;;26.73;16.93;;;6.40;99.90;;;;;;5004277;28;20427;-58
2023/02/23 04:38:04;;;;;;;30.00;17.33;;;6.40;99.90;;;;;;5010870;28;20290;-58
2023/02/23 04:40:30;;;;;;;33.03;17.97;;;6.40;99.90;;;;;;5004978;28;20526;-58
2023/02/23 04:42:56;;;;;;;27.33;16.63;;;6.40;99.90;;;;;;5007361;28;20243;-58
2023/02/23 04:45:23;;;;;;;30.90;16.87;;;6.40;99.90;;;;;;5002764;28;20196;-58
2023/02/23 04:47:49;;;;;;;30.23;16.73;;;6.40;99.90;;;;;;5004991;28;20180;-60
2023/02/23 04:50:15;;;;;;;26.30;15.90;;;6.40;99.90;;;;;;5009331;28;20404;-58
2023/02/23 04:52:41;;;;;;;32.83;17.67;;;6.40;99.90;;;;;;5011290;28;20482;-57
2023/02/23 04:55:15;;;;;;;31.43;17.03;;;6.50;99.90;;;;;;5004867;28;20982;-58
2023/02/23 04:57:40;;;;;;;26.77;15.60;;;6.50;99.90;;;;;;5000325;28;20647;-58
2023/02/23 05:00:07;;;;;;;34.10;16.97;;;6.50;99.90;;;;;;4993451;28;20522;-58
2023/02/23 05:02:32;;;;;;;30.00;16.67;;;6.50;99.90;;;;;;4991320;28;20211;-61
2023/02/23 05:04:58;;;;;;;33.73;17.93;;;6.50;99.90;;;;;;5003665;28;20427;-59
2023/02/23 05:07:24;;;;;;;30.00;17.83;;;6.60;99.90;;;;;;4997523;28;21165;-55
2023/02/23 05:09:49;;;;;;;26.87;17.30;;;6.60;99.90;;;;;;4995289;28;20180;-60
2023/02/23 05:12:15;;;;;;;38.17;19.20;;;6.60;99.90;;;;;;4995851;28;20219;-60
2023/02/23 05:14:41;;;;;;;33.80;16.20;;;6.60;99.90;;;;;;4989721;28;20227;-59
2023/02/23 05:17:07;;;;;;;26.57;16.80;;;6.60;99.90;;;;;;4994922;28;20700;-55
2023/02/23 05:19:32;;;;;;;30.83;17.83;;;6.60;99.90;;;;;;4996082;28;20531;-55
2023/02/23 05:21:58;;;;;;;26.00;15.23;;;6.60;99.90;;;;;;4997000;28;20180;-55
2023/02/23 05:24:24;;;;;;;30.60;16.50;;;6.60;99.90;;;;;;4990337;28;20645;-55
2023/02/23 05:26:50;;;;;;;28.67;16.90;;;6.60;99.90;;;;;;4997417;28;20185;-57
2023/02/23 05:29:16;;;;;;;27.53;15.47;;;6.60;99.90;;;;;;4995019;28;20497;-55
2023/02/23 05:31:41;;;;;;;32.40;17.47;;;6.50;99.90;;;;;;4994739;28;20588;-55
2023/02/23 05:34:07;;;;;;;27.80;15.90;;;6.50;99.90;;;;;;4996634;28;20248;-59
2023/02/23 05:36:33;;;;;;;27.13;15.60;;;6.50;99.90;;;;;;5003020;28;20277;-58
2023/02/23 05:38:59;;;;;;;22.73;14.90;;;6.50;99.90;;;;;;5002911;28;20653;-59
2023/02/23 05:41:24;;;;;;;28.80;16.07;;;6.50;99.90;;;;;;4999201;28;20643;-60
2023/02/23 05:43:52;;;;;;;24.57;15.93;;;6.50;99.90;;;;;;4996927;28;21233;-59
2023/02/23 05:46:23;;;;;;;30.57;16.90;;;6.40;99.90;;;;;;4996876;28;20200;-59
2023/02/23 05:48:50;;;;;;;28.03;17.30;;;6.40;99.90;;;;;;5001374;28;21166;-59
2023/02/23 05:51:17;;;;;;;34.13;17.30;;;6.40;99.90;;;;;;5010614;28;20489;-59
2023/02/23 05:53:43;;;;;;;29.13;16.13;;;6.50;99.90;;;;;;4997002;28;20448;-59
2023/02/23 05:56:13;;;;;;;31.23;18.10;;;6.50;99.90;;;;;;5004485;28;20458;-59
2023/02/23 05:58:38;;;;;;;33.43;17.63;;;6.50;99.90;;;;;;4992453;28;20434;-58
2023/02/23 06:01:04;;;;;;;26.40;17.20;;;6.50;99.90;;;;;;5004379;28;20510;-60
2023/02/23 06:03:30;;;;;;;24.67;16.30;;;6.50;99.90;;;;;;4999205;28;20279;-59
2023/02/23 06:05:57;;;;;;;36.20;17.43;;;6.60;99.90;;;;;;5005878;28;20588;-58
2023/02/23 06:08:25;;;;;;;26.10;16.30;;;6.60;99.90;;;;;;5007420;28;20212;-59
2023/02/23 06:10:50;;;;;;;28.50;18.27;;;6.60;99.90;;;;;;5009008;28;20495;-59
2023/02/23 06:13:18;;;;;;;28.20;16.43;;;6.60;99.90;;;;;;5000502;28;20562;-59
2023/02/23 06:15:44;;;;;;;31.90;17.13;;;6.60;99.90;;;;;;4998031;28;20223;-58
2023/02/23 06:18:10;;;;;;;30.33;16.90;;;6.60;99.90;;;;;;5008563;28;21088;-59
2023/02/23 06:20:37;;;;;;;30.47;16.93;;;6.70;99.90;;;;;;5004250;28;20403;-59
2023/02/23 06:23:03;;;;;;;28.00;15.90;;;6.70;99.90;;;;;;5001009;28;20204;-59
2023/02/23 06:25:30;;;;;;;33.77;17.37;;;6.70;99.90;;;;;;5003425;28;20602;-59
2023/02/23 06:27:56;;;;;;;30.23;17.60;;;6.70;99.90;;;;;;5005860;28;20502;-59
2023/02/23 06:30:22;;;;;;;28.53;16.77;;;6.70;99.90;;;;;;5006256;28;20462;-60
2023/02/23 06:32:48;;;;;;;25.50;16.57;;;6.70;99.90;;;;;;5004138;28;20447;-59
2023/02/23 06:35:13;;;;;;;25.93;16.53;;;6.70;99.90;;;;;;5005255;28;20515;-59
2023/02/23 06:37:39;;;;;;;32.37;17.33;;;6.70;99.90;;;;;;5005486;28;20214;-59
2023/02/23 06:40:05;;;;;;;26.60;16.80;;;6.70;99.90;;;;;;5007408;28;20732;-58
2023/02/23 06:42:31;;;;;;;34.37;16.90;;;6.70;99.90;;;;;;5001058;28;20272;-59
2023/02/23 06:44:56;;;;;;;27.70;17.10;;;6.60;99.90;;;;;;5007905;28;20506;-59
2023/02/23 06:47:22;;;;;;;31.67;18.37;;;6.60;99.90;;;;;;5007469;28;20263;-60
2023/02/23 06:49:48;;;;;;;34.40;18.20;;;6.60;99.90;;;;;;5000979;28;20546;-59
2023/02/23 06:52:14;;;;;;;28.67;17.33;;;6.60;99.90;;;;;;5004608;28;20287;-59
2023/02/23 06:54:40;;;;;;;32.70;18.83;;;6.60;99.90;;;;;;5005408;28;20666;-59
2023/02/23 06:57:07;;;;;;;32.40;18.00;;;6.60;99.90;;;;;;4988927;28;20472;-61
2023/02/23 06:59:33;;;;;;;34.07;19.10;;;6.60;99.90;;;;;;4998857;28;20517;-59
2023/02/23 07:01:59;;;;;;;34.00;19.40;;;6.60;99.90;;;;;;4999630;28;20952;-60
2023/02/23 07:04:24;;;;;;;37.17;19.43;;;6.60;99.90;;;;;;5002199;28;20181;-59
2023/02/23 07:06:51;;;;;;;39.40;21.33;;;6.60;99.90;;;;;;5003153;28;20185;-59
2023/02/23 07:09:17;;;;;;;34.40;19.83;;;6.70;99.90;;;;;;5004781;28;20189;-59
2023/02/23 07:11:43;;;;;;;36.40;19.60;;;6.70;99.90;;;;;;5004512;28;20438;-59
2023/02/23 07:14:10;;;;;;;32.00;18.10;;;6.80;99.90;;;;;;5001677;28;20471;-59
2023/02/23 07:16:37;;;;;;;38.00;17.60;;;6.80;99.90;;;;;;5004117;28;20852;-59
2023/02/23 07:19:03;;;;;;;26.20;16.70;;;6.80;99.90;;;;;;4999952;28;20424;-58
2023/02/23 07:21:30;;;;;;;29.47;17.20;;;6.80;99.90;;;;;;5004535;28;20462;-59
2023/02/23 07:23:57;;;;;;;34.37;16.40;;;6.90;99.90;;;;;;5004477;28;20295;-58
2023/02/23 07:26:23;;;;;;;27.40;17.57;;;6.90;99.90;;;;;;5001051;28;20466;-58
2023/02/23 07:28:48;;;;;;;29.03;17.60;;;6.90;99.90;;;;;;5006397;28;20463;-58
2023/02/23 07:31:14;;;;;;;29.63;17.77;;;7.00;99.90;;;;;;5004788;28;20446;-58
2023/02/23 07:33:40;;;;;;;31.30;17.63;;;7.00;99.90;;;;;;5008228;28;20780;-58
2023/02/23 07:36:05;;;;;;;33.50;16.90;;;7.10;99.90;;;;;;5006888;28;20203;-58
2023/02/23 07:38:31;;;;;;;30.07;17.77;;;7.10;99.90;;;;;;5007327;28;20180;-58
2023/02/23 07:40:57;;;;;;;29.10;17.80;;;7.10;99.90;;;;;;5012106;28;20768;-58
2023/02/23 07:43:23;;;;;;;30.07;16.50;;;7.10;99.90;;;;;;4998821;28;20482;-58
2023/02/23 07:45:50;;;;;;;32.00;18.60;;;7.20;99.90;;;;;;5009440;28;20541;-58
2023/02/23 07:48:16;;;;;;;28.87;17.17;;;7.20;99.90;;;;;;5008850;28;20449;-58
2023/02/23 07:50:42;;;;;;;34.90;19.13;;;7.20;99.90;;;;;;5005587;28;20486;-61
2023/02/23 07:53:08;;;;;;;41.43;20.30;;;7.20;99.90;;;;;;4999171;28;20455;-54
2023/02/23 07:55:35;;;;;;;41.30;20.07;;;7.30;99.90;;;;;;5010243;28;20188;-58
2023/02/23 07:58:01;;;;;;;39.50;21.20;;;7.30;99.90;;;;;;5004425;28;20491;-59
2023/02/23 08:00:26;;;;;;;35.37;19.33;;;7.40;99.90;;;;;;5011383;28;20435;-59
2023/02/23 08:02:52;;;;;;;35.03;19.87;;;7.40;99.90;;;;;;5000971;28;22170;-58
2023/02/23 08:05:18;;;;;;;39.97;20.17;;;7.40;99.90;;;;;;5003407;28;20168;-59
2023/02/23 08:07:44;;;;;;;33.73;18.77;;;7.50;99.90;;;;;;5006990;28;20195;-57
2023/02/23 08:10:11;;;;;;;32.60;19.30;;;7.50;99.90;;;;;;5002894;28;20443;-59
2023/02/23 08:12:37;;;;;;;30.53;17.50;;;7.50;99.90;;;;;;5008613;28;20475;-59
2023/02/23 08:15:07;;;;;;;28.70;16.70;;;7.60;99.90;;;;;;5006333;28;20574;-58
2023/02/23 08:17:38;;;;;;;33.40;18.30;;;7.60;99.90;;;;;;5007536;28;20549;-60
2023/02/23 08:20:05;;;;;;;31.60;16.93;;;7.70;99.90;;;;;;5006415;28;20435;-58
2023/02/23 08:22:31;;;;;;;32.20;17.97;;;7.70;99.90;;;;;;5008369;28;20440;-59
2023/02/23 08:24:57;;;;;;;33.00;16.93;;;7.80;99.90;;;;;;5001358;28;20931;-59
2023/02/23 08:27:23;;;;;;;38.10;18.27;;;7.90;99.90;;;;;;5005908;28;20185;-58
2023/02/23 08:29:51;;;;;;;34.03;15.70;;;7.90;99.90;;;;;;5003765;28;20842;-59
2023/02/23 08:32:17;;;;;;;29.20;15.87;;;8.00;99.90;;;;;;5006889;28;20477;-59
2023/02/23 08:34:43;;;;;;;29.40;16.20;;;8.10;99.90;;;;;;5003897;28;20443;-58
2023/02/23 08:37:09;;;;;;;27.77;16.43;;;8.20;99.90;;;;;;5003728;28;20501;-58
2023/02/23 08:39:35;;;;;;;27.33;15.10;;;8.30;99.90;;;;;;5010438;28;20553;-59
2023/02/23 08:42:01;;;;;;;32.40;15.70;;;8.40;99.90;;;;;;5004764;28;20436;-59
2023/02/23 08:44:27;;;;;;;33.70;16.60;;;8.40;99.90;;;;;;5005929;28;20188;-58
2023/02/23 08:46:54;;;;;;;32.13;16.00;;;8.50;99.90;;;;;;5005202;28;20454;-59
2023/02/23 08:49:20;;;;;;;37.57;15.70;;;8.60;99.90;;;;;;5007585;28;20800;-58
2023/02/23 08:51:45;;;;;;;31.73;14.87;;;8.70;99.90;;;;;;5000354;28;20618;-58
2023/02/23 08:54:13;;;;;;;28.23;14.60;;;8.70;99.90;;;;;;5007777;28;20582;-59
2023/02/23 08:56:40;;;;;;;25.57;14.77;;;8.70;99.90;;;;;;5006958;28;20207;-59
2023/02/23 08:59:06;;;;;;;33.00;15.40;;;8.70;99.90;;;;;;5006808;28;20527;-59
2023/02/23 09:01:32;;;;;;;29.83;16.30;;;8.70;99.90;;;;;;5000606;28;20906;-59
2023/02/23 09:03:59;;;;;;;26.30;15.63;;;8.70;99.90;;;;;;5003369;28;21100;-59
2023/02/23 09:06:25;;;;;;;31.47;15.47;;;8.80;99.90;;;;;;5006569;28;20645;-59
2023/02/23 09:08:53;;;;;;;27.43;13.67;;;8.90;99.90;;;;;;5006548;28;20431;-58
2023/02/23 09:11:19;;;;;;;31.13;15.83;;;9.00;99.90;;;;;;5006993;28;20458;-58
2023/02/23 09:13:44;;;;;;;30.93;15.27;;;9.10;99.90;;;;;;5007876;28;20479;-59
2023/02/23 09:16:10;;;;;;;27.97;15.10;;;9.20;99.90;;;;;;5007661;28;20200;-58
2023/02/23 09:18:36;;;;;;;29.67;14.90;;;9.20;99.90;;;;;;4993349;28;20339;-59
2023/02/23 09:21:07;;;;;;;30.97;15.57;;;9.30;99.90;;;;;;5002839;28;20206;-59
2023/02/23 09:23:36;;;;;;;30.17;15.30;;;9.30;99.90;;;;;;5002014;28;20486;-58
2023/02/23 09:26:07;;;;;;;26.10;15.07;;;9.20;99.90;;;;;;5004927;28;20495;-60
2023/02/23 09:28:34;;;;;;;25.40;14.90;;;9.20;99.90;;;;;;5006783;28;20435;-59
2023/02/23 09:31:14;;;;;;;27.40;15.23;;;9.20;99.90;;;;;;5006395;28;20442;-59
2023/02/23 09:33:40;;;;;;;34.37;16.50;;;9.10;99.90;;;;;;5003353;28;20843;-59
2023/02/23 09:36:11;;;;;;;29.00;16.93;;;9.10;99.90;;;;;;5008098;28;20432;-59
2023/02/23 09:38:38;;;;;;;28.73;16.30;;;9.10;99.90;;;;;;5004924;28;20260;-58
2023/02/23 09:41:25;;;;;;;33.27;16.20;;;9.10;99.90;;;;;;5002585;28;20427;-58
2023/02/23 09:44:06;;;;;;;32.30;18.73;;;9.10;99.90;;;;;;4999580;28;20455;-59
2023/02/23 09:46:53;;;;;;;29.50;14.80;;;9.10;99.90;;;;;;5006812;28;20439;-58
2023/02/23 09:49:22;;;;;;;33.57;14.80;;;9.10;99.90;;;;;;5002283;28;20418;-58
2023/02/23 09:51:56;;;;;;;38.57;16.20;;;9.10;99.90;;;;;;5004166;28;20431;-58
2023/02/23 09:54:24;;;;;;;29.60;16.33;;;9.20;99.90;;;;;;5008082;28;20482;-59
2023/02/23 09:56:52;;;;;;;31.27;15.60;;;9.20;99.90;;;;;;5002753;28;20463;-58
2023/02/23 09:59:20;;;;;;;31.07;16.40;;;9.20;99.90;;;;;;5002959;28;20435;-59
2023/02/23 10:01:48;;;;;;;36.57;16.43;;;9.20;99.90;;;;;;4997841;28;21182;-58
2023/02/23 10:04:20;;;;;;;31.60;15.67;;;9.20;99.90;;;;;;5009839;28;20432;-59
2023/02/23 10:07:09;;;;;;;28.37;15.30;;;9.20;99.90;;;;;;5001988;28;20804;-60
2023/02/23 10:09:56;;;;;;;30.53;16.67;;;9.20;99.90;;;;;;5006286;28;21019;-59
2023/02/23 10:12:48;;;;;;;36.00;17.77;;;9.30;99.90;;;;;;5003623;28;21042;-59
2023/02/23 10:15:35;;;;;;;33.80;16.77;;;9.30;99.90;;;;;;5002258;28;20435;-59
2023/02/23 10:18:11;;;;;;;29.63;15.77;;;9.30;99.90;;;;;;5000636;28;20872;-59
2023/02/23 10:20:51;;;;;;;33.30;16.93;;;9.30;99.90;;;;;;5005462;28;20435;-59
2023/02/23 10:23:30;;;;;;;31.47;16.63;;;9.40;99.90;;;;;;5011493;28;20442;-61
2023/02/23 10:25:59;;;;;;;38.13;17.67;;;9.50;99.90;;;;;;5002598;28;20431;-59
2023/02/23 10:28:27;;;;;;;35.90;17.10;;;9.60;99.90;;;;;;5002884;28;20435;-59
2023/02/23 10:30:54;;;;;;;31.40;17.77;;;9.70;99.90;;;;;;5005752;28;20442;-59
2023/02/23 10:33:24;;;;;;;32.47;17.10;;;9.80;99.90;;;;;;5001675;28;20471;-59
2023/02/23 10:35:54;;;;;;;34.17;17.73;;;9.90;99.90;;;;;;5003074;28;20459;-59
2023/02/23 10:38:20;;;;;;;28.33;16.43;;;10.10;99.90;;;;;;5009256;28;20937;-59
2023/02/23 10:40:53;;;;;;;35.97;16.83;;;10.40;99.90;;;;;;5006788;28;20427;-60
2023/02/23 10:43:19;;;;;;;30.00;17.20;;;10.80;99.90;;;;;;5000720;28;20683;-58
2023/02/23 10:45:47;;;;;;;36.93;18.07;;;11.00;99.90;;;;;;4998043;28;20435;-59
2023/02/23 10:48:43;;;;;;;30.33;16.60;;;11.10;99.90;;;;;;5001759;28;20873;-59
2023/02/23 10:51:18;;;;;;;26.43;15.30;;;11.10;98.90;;;;;;4989380;28;20450;-59
2023/02/23 10:53:44;;;;;;;28.83;15.90;;;11.00;98.30;;;;;;4998699;28;20469;-59
2023/02/23 10:56:16;;;;;;;33.47;15.90;;;10.90;97.10;;;;;;5000349;28;20959;-59
2023/02/23 10:58:47;;;;;;;41.83;16.53;;;10.90;98.50;;;;;;5007370;28;20185;-59
2023/02/23 11:01:15;;;;;;;28.60;16.53;;;10.80;99.20;;;;;;5003662;28;20490;-58
2023/02/23 11:03:51;;;;;;;32.20;15.83;;;10.80;99.90;;;;;;5003065;28;20463;-58
2023/02/23 11:06:28;;;;;;;26.67;16.30;;;10.70;99.90;;;;;;5018178;28;20497;-58
2023/02/23 11:08:54;;;;;;;32.53;14.90;;;10.70;99.90;;;;;;5003937;28;20427;-58
2023/02/23 11:11:27;;;;;;;33.50;15.60;;;10.70;99.90;;;;;;5009812;28;20431;-59
2023/02/23 11:13:55;;;;;;;27.47;14.93;;;10.70;99.90;;;;;;5022589;28;20231;-58
2023/02/23 11:16:24;;;;;;;34.33;15.20;;;10.70;99.60;;;;;;4997691;28;20474;-57
2023/02/23 11:18:54;;;;;;;24.07;14.47;;;10.70;99.90;;;;;;5018823;28;20835;-57
2023/02/23 11:21:38;;;;;;;26.10;13.20;;;10.70;99.50;;;;;;5017675;28;20431;-57
2023/02/23 11:24:24;;;;;;;35.73;14.43;;;10.80;96.80;;;;;;5009017;28;20453;-56
2023/02/23 11:26:53;;;;;;;22.67;11.80;;;10.90;96.60;;;;;;5002348;28;20486;-59
2023/02/23 11:29:28;;;;;;;23.37;12.00;;;11.10;95.20;;;;;;5006106;28;20829;-58
2023/02/23 11:31:56;;;;;;;24.17;11.20;;;11.20;91.20;;;;;;4993468;28;20431;-59
2023/02/23 11:34:29;;;;;;;29.50;13.17;;;11.20;89.40;;;;;;5005747;28;20482;-58
2023/02/23 11:37:19;;;;;;;21.50;12.50;;;11.30;83.80;;;;;;5007100;28;20463;-58
2023/02/23 11:39:54;;;;;;;23.20;12.27;;;11.30;81.80;;;;;;4996904;28;21030;-58
2023/02/23 11:42:25;;;;;;;24.53;11.33;;;11.30;81.30;;;;;;4998035;28;21085;-58
2023/02/23 11:45:01;;;;;;;19.37;11.80;;;11.40;81.10;;;;;;5009605;28;20538;-58
2023/02/23 11:47:28;;;;;;;22.47;10.53;;;11.60;79.70;;;;;;4994742;28;20511;-59
2023/02/23 11:49:54;;;;;;;23.60;11.70;;;12.10;77.60;;;;;;5001241;28;20450;-59
2023/02/23 11:52:23;;;;;;;19.03;10.50;;;12.50;72.80;;;;;;4997143;28;20463;-60
2023/02/23 11:54:57;;;;;;;22.40;10.00;;;12.70;69.80;;;;;;5009271;28;20657;-60
2023/02/23 11:57:27;;;;;;;19.40;10.90;;;12.70;68.40;;;;;;5005878;28;20467;-60
2023/02/23 11:59:55;;;;;;;18.60;10.77;;;12.60;65.20;;;;;;5005136;28;20412;-60
2023/02/23 12:02:27;;;;;;;20.30;10.80;;;12.70;66.40;;;;;;5010285;28;20959;-61
2023/02/23 12:05:05;;;;;;;21.80;11.33;;;13.30;68.00;;;;;;5010724;28;20427;-60
2023/02/23 12:07:42;;;;;;;20.37;10.93;;;13.70;66.30;;;;;;5006458;28;20433;-60
2023/02/23 12:10:20;;;;;;;22.10;11.77;;;13.90;64.60;;;;;;5010476;28;20419;-60
2023/02/23 12:13:13;;;;;;;21.83;10.70;;;13.80;63.70;;;;;;5006704;28;20467;-60
2023/02/23 12:15:47;;;;;;;29.00;11.17;;;13.80;63.10;;;;;;5003002;28;20475;-60
2023/02/23 12:18:28;;;;;;;21.20;10.60;;;14.10;63.40;;;;;;5007401;28;20466;-60
2023/02/23 12:20:56;;;;;;;18.53;10.20;;;14.60;62.80;;;;;;5006195;28;20446;-59
2023/02/23 12:23:28;;;;;;;18.07;10.20;;;14.90;60.50;;;;;;5005961;28;20558;-60
2023/02/23 12:26:17;;;;;;;19.73;8.97;;;15.10;59.50;;;;;;5006950;28;20515;-60
2023/02/23 12:28:53;;;;;;;17.60;8.60;;;15.70;58.10;;;;;;5005656;28;20501;-60
2023/02/23 12:31:35;;;;;;;16.80;9.70;;;16.50;56.30;;;;;;4996681;28;20438;-58
2023/02/23 12:34:14;;;;;;;24.47;9.90;;;17.30;53.30;;;;;;5002989;28;20455;-58
2023/02/23 12:36:46;;;;;;;16.30;9.20;;;17.70;52.20;;;;;;5000466;28;20458;-59
2023/02/23 12:39:26;;;;;;;18.43;9.20;;;17.90;51.80;;;;;;5004586;28;20446;-59
2023/02/23 12:42:14;;;;;;;19.83;9.57;;;17.50;51.80;;;;;;5003747;28;20427;-59
2023/02/23 12:44:53;;;;;;;14.20;8.90;;;16.90;52.20;;;;;;5005955;28;20484;-59
2023/02/23 12:47:57;;;;;;;20.97;9.93;;;17.00;52.80;;;;;;4998127;28;20475;-59
2023/02/23 12:50:38;;;;;;;17.70;8.63;;;17.40;50.70;;;;;;4994727;28;20440;-59
2023/02/23 12:53:36;;;;;;;15.47;8.20;;;17.10;50.10;;;;;;5001552;28;20451;-62
2023/02/23 12:56:16;;;;;;;18.97;7.63;;;16.80;50.80;;;;;;5002823;28;20426;-59
2023/02/23 12:59:00;;;;;;;25.63;10.43;;;17.00;51.40;;;;;;4997781;28;20467;-59
2023/02/23 13:01:41;;;;;;;21.10;8.97;;;17.30;50.50;;;;;;5008056;28;20435;-59
2023/02/23 13:04:29;;;;;;;20.40;9.77;;;17.10;50.60;;;;;;4996640;28;20635;-59
2023/02/23 13:07:05;;;;;;;14.73;8.57;;;16.60;51.00;;;;;;5015213;28;20597;-59
2023/02/23 13:09:40;;;;;;;17.37;9.17;;;16.30;51.60;;;;;;5003078;28;20454;-58
2023/02/23 13:12:35;;;;;;;13.53;8.03;;;16.20;52.20;;;;;;5003099;28;20454;-59
2023/02/23 13:15:18;;;;;;;12.27;8.07;;;16.60;53.00;;;;;;5006322;28;20482;-59
2023/02/23 13:17:53;;;;;;;23.20;8.87;;;17.00;51.40;;;;;;5008249;28;20451;-59
2023/02/23 13:20:32;;;;;;;19.23;8.60;;;16.90;50.40;;;;;;5006927;28;20439;-59
2023/02/23 13:23:08;;;;;;;20.83;8.63;;;16.70;50.50;;;;;;5006257;28;20454;-59
2023/02/23 13:25:43;;;;;;;16.33;7.70;;;16.40;50.30;;;;;;4998077;28;20569;-59
2023/02/23 13:28:18;;;;;;;15.27;7.87;;;16.00;50.60;;;;;;5004937;28;20437;-59
2023/02/23 13:30:46;;;;;;;15.80;8.80;;;15.80;51.10;;;;;;5007561;28;20936;-59
2023/02/23 13:33:26;;;;;;;25.50;9.00;;;15.60;51.80;;;;;;5006215;28;20525;-60
2023/02/23 13:35:52;;;;;;;14.37;8.27;;;15.30;52.10;;;;;;5007075;28;20423;-59
2023/02/23 13:38:35;;;;;;;15.37;7.80;;;14.90;52.60;;;;;;5008983;28;20509;-59
2023/02/23 13:41:20;;;;;;;18.27;7.63;;;14.60;53.10;;;;;;5000454;28;20419;-61
2023/02/23 13:44:07;;;;;;;15.83;7.37;;;14.20;52.80;;;;;;5004209;28;20517;-59
2023/02/23 13:46:53;;;;;;;18.80;8.13;;;14.00;53.60;;;;;;5001854;28;20433;-62
2023/02/23 13:49:31;;;;;;;15.03;8.73;;;14.10;54.90;;;;;;4995479;28;20436;-58
2023/02/23 13:52:19;;;;;;;20.57;9.23;;;14.30;55.40;;;;;;5004714;28;20428;-59
2023/02/23 13:55:01;;;;;;;18.83;9.37;;;14.30;55.40;;;;;;5002993;28;20443;-59
2023/02/23 13:57:29;;;;;;;20.93;9.23;;;14.20;55.10;;;;;;5003785;28;20547;-59
2023/02/23 13:59:55;;;;;;;22.83;9.07;;;14.10;55.20;;;;;;5003127;28;20459;-59
2023/02/23 14:02:37;;;;;;;15.73;8.80;;;14.00;55.20;;;;;;5005922;28;20474;-59
2023/02/23 14:05:14;;;;;;;14.73;8.10;;;13.80;54.40;;;;;;5004167;28;20481;-58
2023/02/23 14:07:43;;;;;;;27.70;9.73;;;13.60;55.40;;;;;;5003923;28;20439;-59
2023/02/23 14:10:27;;;;;;;18.73;8.90;;;13.80;56.60;;;;;;4997789;28;20514;-60
2023/02/23 14:13:12;;;;;;;19.23;8.07;;;14.00;56.50;;;;;;5002663;28;20498;-59